sensor_id;sensor_type;location;lat;lon;timestamp;pressure;altitude;pressure_sealevel;temperature
70050;BMP180;57391;51.306;22.680;2023-03-31T00:01:10;98640.40;;;7.80
70050;BMP180;57391;51.306;22.680;2023-03-31T00:03:37;98634.20;;;7.80
70050;BMP180;57391;51.306;22.680;2023-03-31T00:06:12;98630.80;;;7.80
70050;BMP180;57391;51.306;22.680;2023-03-31T00:08:44;98624.00;;;7.80
70050;BMP180;57391;51.306;22.680;2023-03-31T00:11:11;98626.40;;;7.80
70050;BMP180;57391;51.306;22.680;2023-03-31T00:13:39;98621.20;;;7.80
70050;BMP180;57391;51.306;22.680;2023-03-31T00:16:08;98615.60;;;7.80
70050;BMP180;57391;51.306;22.680;2023-03-31T00:18:36;98612.60;;;7.72
70050;BMP180;57391;51.306;22.680;2023-03-31T00:21:14;98609.80;;;7.70
70050;BMP180;57391;51.306;22.680;2023-03-31T00:23:56;98607.00;;;7.70
70050;BMP180;57391;51.306;22.680;2023-03-31T00:26:24;98608.20;;;7.70
70050;BMP180;57391;51.306;22.680;2023-03-31T00:28:52;98609.80;;;7.70
70050;BMP180;57391;51.306;22.680;2023-03-31T00:31:21;98601.00;;;7.70
70050;BMP180;57391;51.306;22.680;2023-03-31T00:33:49;98596.60;;;7.70
70050;BMP180;57391;51.306;22.680;2023-03-31T00:36:17;98599.80;;;7.70
70050;BMP180;57391;51.306;22.680;2023-03-31T00:38:47;98591.80;;;7.70
70050;BMP180;57391;51.306;22.680;2023-03-31T00:41:15;98584.00;;;7.70
70050;BMP180;57391;51.306;22.680;2023-03-31T00:49:28;98580.60;;;7.70
70050;BMP180;57391;51.306;22.680;2023-03-31T00:52:07;98576.40;;;7.70
70050;BMP180;57391;51.306;22.680;2023-03-31T00:54:37;98581.20;;;7.70
70050;BMP180;57391;51.306;22.680;2023-03-31T00:57:07;98580.20;;;7.70
70050;BMP180;57391;51.306;22.680;2023-03-31T00:59:41;98580.40;;;7.72
70050;BMP180;57391;51.306;22.680;2023-03-31T01:02:12;98582.60;;;7.74
70050;BMP180;57391;51.306;22.680;2023-03-31T01:04:51;98584.00;;;7.74
70050;BMP180;57391;51.306;22.680;2023-03-31T01:07:31;98584.60;;;7.78
70050;BMP180;57391;51.306;22.680;2023-03-31T01:10:02;98585.00;;;7.74
70050;BMP180;57391;51.306;22.680;2023-03-31T01:12:36;98578.60;;;7.78
70050;BMP180;57391;51.306;22.680;2023-03-31T01:15:06;98577.00;;;7.78
70050;BMP180;57391;51.306;22.680;2023-03-31T01:17:34;98571.80;;;7.80
70050;BMP180;57391;51.306;22.680;2023-03-31T01:49:43;98557.80;;;7.90
70050;BMP180;57391;51.306;22.680;2023-03-31T01:55:13;98551.40;;;7.90
70050;BMP180;57391;51.306;22.680;2023-03-31T02:00:46;98539.40;;;7.90
70050;BMP180;57391;51.306;22.680;2023-03-31T02:03:28;98543.40;;;7.98
70050;BMP180;57391;51.306;22.680;2023-03-31T02:06:03;98541.60;;;8.00
70050;BMP180;57391;51.306;22.680;2023-03-31T02:09:03;98541.80;;;8.00
70050;BMP180;57391;51.306;22.680;2023-03-31T02:11:33;98541.20;;;8.00
70050;BMP180;57391;51.306;22.680;2023-03-31T02:14:08;98539.60;;;8.00
70050;BMP180;57391;51.306;22.680;2023-03-31T02:16:39;98537.40;;;8.00
70050;BMP180;57391;51.306;22.680;2023-03-31T02:19:16;98541.40;;;8.00
70050;BMP180;57391;51.306;22.680;2023-03-31T02:21:47;98542.00;;;8.00
70050;BMP180;57391;51.306;22.680;2023-03-31T02:24:18;98548.20;;;8.00
70050;BMP180;57391;51.306;22.680;2023-03-31T02:27:02;98544.80;;;8.00
70050;BMP180;57391;51.306;22.680;2023-03-31T02:29:32;98547.00;;;8.02
70050;BMP180;57391;51.306;22.680;2023-03-31T02:32:14;98548.40;;;8.10
70050;BMP180;57391;51.306;22.680;2023-03-31T02:34:43;98539.40;;;8.10
70050;BMP180;57391;51.306;22.680;2023-03-31T02:37:12;98550.80;;;8.10
70050;BMP180;57391;51.306;22.680;2023-03-31T02:39:46;98547.40;;;8.16
70050;BMP180;57391;51.306;22.680;2023-03-31T02:42:14;98543.00;;;8.20
70050;BMP180;57391;51.306;22.680;2023-03-31T02:44:42;98540.20;;;8.20
70050;BMP180;57391;51.306;22.680;2023-03-31T02:47:13;98534.00;;;8.30
70050;BMP180;57391;51.306;22.680;2023-03-31T02:49:54;98538.80;;;8.30
70050;BMP180;57391;51.306;22.680;2023-03-31T02:52:33;98534.40;;;8.36
70050;BMP180;57391;51.306;22.680;2023-03-31T02:55:45;98535.80;;;8.40
70050;BMP180;57391;51.306;22.680;2023-03-31T03:01:29;98535.40;;;8.50
70050;BMP180;57391;51.306;22.680;2023-03-31T03:07:36;98530.40;;;8.50
70050;BMP180;57391;51.306;22.680;2023-03-31T03:10:23;98529.00;;;8.50
70050;BMP180;57391;51.306;22.680;2023-03-31T03:15:47;98541.00;;;8.50
70050;BMP180;57391;51.306;22.680;2023-03-31T03:18:16;98538.20;;;8.60
70050;BMP180;57391;51.306;22.680;2023-03-31T03:20:43;98537.80;;;8.60
70050;BMP180;57391;51.306;22.680;2023-03-31T03:23:17;98533.60;;;8.60
70050;BMP180;57391;51.306;22.680;2023-03-31T03:25:44;98539.60;;;8.60
70050;BMP180;57391;51.306;22.680;2023-03-31T03:28:12;98537.60;;;8.60
70050;BMP180;57391;51.306;22.680;2023-03-31T03:30:40;98530.80;;;8.60
70050;BMP180;57391;51.306;22.680;2023-03-31T03:33:07;98543.40;;;8.62
70050;BMP180;57391;51.306;22.680;2023-03-31T03:35:35;98539.80;;;8.62
70050;BMP180;57391;51.306;22.680;2023-03-31T03:38:02;98539.00;;;8.64
70050;BMP180;57391;51.306;22.680;2023-03-31T03:40:29;98540.20;;;8.68
70050;BMP180;57391;51.306;22.680;2023-03-31T03:42:56;98538.80;;;8.70
70050;BMP180;57391;51.306;22.680;2023-03-31T03:45:23;98539.20;;;8.70
70050;BMP180;57391;51.306;22.680;2023-03-31T03:47:51;98533.60;;;8.70
70050;BMP180;57391;51.306;22.680;2023-03-31T03:50:18;98533.40;;;8.70
70050;BMP180;57391;51.306;22.680;2023-03-31T03:52:45;98534.60;;;8.76
70050;BMP180;57391;51.306;22.680;2023-03-31T03:55:12;98540.00;;;8.80
70050;BMP180;57391;51.306;22.680;2023-03-31T03:57:40;98543.00;;;8.80
70050;BMP180;57391;51.306;22.680;2023-03-31T04:00:08;98541.80;;;8.80
70050;BMP180;57391;51.306;22.680;2023-03-31T04:02:39;98545.00;;;8.80
70050;BMP180;57391;51.306;22.680;2023-03-31T04:05:07;98542.00;;;8.80
70050;BMP180;57391;51.306;22.680;2023-03-31T04:07:34;98537.40;;;8.88
70050;BMP180;57391;51.306;22.680;2023-03-31T04:10:01;98535.40;;;8.90
70050;BMP180;57391;51.306;22.680;2023-03-31T04:12:28;98532.80;;;8.90
70050;BMP180;57391;51.306;22.680;2023-03-31T04:14:55;98541.20;;;8.90
70050;BMP180;57391;51.306;22.680;2023-03-31T04:17:26;98538.40;;;8.90
70050;BMP180;57391;51.306;22.680;2023-03-31T04:20:07;98544.60;;;9.00
70050;BMP180;57391;51.306;22.680;2023-03-31T04:22:36;98538.00;;;9.00
70050;BMP180;57391;51.306;22.680;2023-03-31T04:25:10;98543.20;;;9.00
70050;BMP180;57391;51.306;22.680;2023-03-31T04:27:48;98537.60;;;9.00
70050;BMP180;57391;51.306;22.680;2023-03-31T04:30:26;98540.20;;;9.00
70050;BMP180;57391;51.306;22.680;2023-03-31T04:33:01;98542.60;;;9.06
70050;BMP180;57391;51.306;22.680;2023-03-31T04:35:30;98539.40;;;9.10
70050;BMP180;57391;51.306;22.680;2023-03-31T04:38:22;98532.60;;;9.10
70050;BMP180;57391;51.306;22.680;2023-03-31T04:40:51;98540.00;;;9.10
70050;BMP180;57391;51.306;22.680;2023-03-31T04:43:20;98541.20;;;9.10
70050;BMP180;57391;51.306;22.680;2023-03-31T04:45:48;98542.60;;;9.12
70050;BMP180;57391;51.306;22.680;2023-03-31T04:48:16;98531.60;;;9.14
70050;BMP180;57391;51.306;22.680;2023-03-31T04:50:45;98531.20;;;9.20
70050;BMP180;57391;51.306;22.680;2023-03-31T04:53:12;98529.20;;;9.20
70050;BMP180;57391;51.306;22.680;2023-03-31T04:55:39;98530.40;;;9.20
70050;BMP180;57391;51.306;22.680;2023-03-31T04:58:07;98531.60;;;9.20
70050;BMP180;57391;51.306;22.680;2023-03-31T05:00:34;98530.80;;;9.28
70050;BMP180;57391;51.306;22.680;2023-03-31T05:03:01;98529.60;;;9.30
70050;BMP180;57391;51.306;22.680;2023-03-31T05:05:28;98529.40;;;9.30
70050;BMP180;57391;51.306;22.680;2023-03-31T05:07:56;98524.80;;;9.30
70050;BMP180;57391;51.306;22.680;2023-03-31T05:10:24;98527.20;;;9.30
70050;BMP180;57391;51.306;22.680;2023-03-31T05:12:51;98527.40;;;9.30
70050;BMP180;57391;51.306;22.680;2023-03-31T05:15:18;98529.40;;;9.32
70050;BMP180;57391;51.306;22.680;2023-03-31T05:17:46;98523.40;;;9.40
70050;BMP180;57391;51.306;22.680;2023-03-31T05:20:14;98523.20;;;9.40
70050;BMP180;57391;51.306;22.680;2023-03-31T05:22:41;98527.00;;;9.40
70050;BMP180;57391;51.306;22.680;2023-03-31T05:25:12;98518.60;;;9.40
70050;BMP180;57391;51.306;22.680;2023-03-31T05:27:48;98517.80;;;9.40
70050;BMP180;57391;51.306;22.680;2023-03-31T05:30:17;98516.60;;;9.50
70050;BMP180;57391;51.306;22.680;2023-03-31T05:32:44;98510.40;;;9.50
70050;BMP180;57391;51.306;22.680;2023-03-31T05:35:12;98516.20;;;9.50
70050;BMP180;57391;51.306;22.680;2023-03-31T05:37:39;98515.40;;;9.50
70050;BMP180;57391;51.306;22.680;2023-03-31T05:40:07;98514.00;;;9.50
70050;BMP180;57391;51.306;22.680;2023-03-31T05:42:35;98516.40;;;9.52
70050;BMP180;57391;51.306;22.680;2023-03-31T05:45:04;98523.00;;;9.60
70050;BMP180;57391;51.306;22.680;2023-03-31T05:47:31;98517.00;;;9.60
70050;BMP180;57391;51.306;22.680;2023-03-31T05:49:58;98519.00;;;9.62
70050;BMP180;57391;51.306;22.680;2023-03-31T05:52:26;98516.80;;;9.70
70050;BMP180;57391;51.306;22.680;2023-03-31T05:54:53;98526.40;;;9.70
70050;BMP180;57391;51.306;22.680;2023-03-31T05:57:20;98519.40;;;9.72
70050;BMP180;57391;51.306;22.680;2023-03-31T05:59:47;98523.40;;;9.80
70050;BMP180;57391;51.306;22.680;2023-03-31T06:02:14;98525.40;;;9.80
70050;BMP180;57391;51.306;22.680;2023-03-31T06:04:42;98526.60;;;9.82
70050;BMP180;57391;51.306;22.680;2023-03-31T06:07:09;98523.40;;;9.90
70050;BMP180;57391;51.306;22.680;2023-03-31T06:09:37;98526.80;;;9.90
70050;BMP180;57391;51.306;22.680;2023-03-31T06:12:05;98530.20;;;10.00
70050;BMP180;57391;51.306;22.680;2023-03-31T06:14:32;98531.20;;;10.00
70050;BMP180;57391;51.306;22.680;2023-03-31T06:16:59;98531.20;;;10.10
70050;BMP180;57391;51.306;22.680;2023-03-31T06:19:26;98535.20;;;10.14
70050;BMP180;57391;51.306;22.680;2023-03-31T06:21:54;98539.20;;;10.20
70050;BMP180;57391;51.306;22.680;2023-03-31T06:24:21;98533.20;;;10.30
70050;BMP180;57391;51.306;22.680;2023-03-31T06:26:48;98533.40;;;10.40
70050;BMP180;57391;51.306;22.680;2023-03-31T06:29:16;98525.60;;;10.60
70050;BMP180;57391;51.306;22.680;2023-03-31T06:31:43;98526.40;;;10.80
70050;BMP180;57391;51.306;22.680;2023-03-31T06:34:12;98521.40;;;11.00
70050;BMP180;57391;51.306;22.680;2023-03-31T06:36:39;98523.00;;;11.20
70050;BMP180;57391;51.306;22.680;2023-03-31T06:39:07;98519.20;;;11.40
70050;BMP180;57391;51.306;22.680;2023-03-31T06:41:35;98525.20;;;11.52
70050;BMP180;57391;51.306;22.680;2023-03-31T06:44:06;98524.40;;;11.70
70050;BMP180;57391;51.306;22.680;2023-03-31T06:46:33;98532.20;;;11.82
70050;BMP180;57391;51.306;22.680;2023-03-31T06:49:00;98533.60;;;12.00
70050;BMP180;57391;51.306;22.680;2023-03-31T06:51:28;98540.40;;;12.18
70050;BMP180;57391;51.306;22.680;2023-03-31T06:53:55;98533.20;;;12.30
70050;BMP180;57391;51.306;22.680;2023-03-31T06:56:22;98540.00;;;12.30
70050;BMP180;57391;51.306;22.680;2023-03-31T06:58:49;98544.00;;;12.40
70050;BMP180;57391;51.306;22.680;2023-03-31T07:01:16;98543.00;;;12.50
70050;BMP180;57391;51.306;22.680;2023-03-31T07:03:43;98550.00;;;12.50
70050;BMP180;57391;51.306;22.680;2023-03-31T07:06:10;98548.60;;;12.60
70050;BMP180;57391;51.306;22.680;2023-03-31T07:08:37;98548.00;;;12.70
70050;BMP180;57391;51.306;22.680;2023-03-31T07:11:04;98551.00;;;12.80
70050;BMP180;57391;51.306;22.680;2023-03-31T07:13:31;98546.40;;;12.90
70050;BMP180;57391;51.306;22.680;2023-03-31T07:15:58;98548.80;;;12.98
70050;BMP180;57391;51.306;22.680;2023-03-31T07:18:26;98553.40;;;13.00
70050;BMP180;57391;51.306;22.680;2023-03-31T07:20:57;98554.20;;;13.00
70050;BMP180;57391;51.306;22.680;2023-03-31T07:23:26;98553.40;;;13.10
70050;BMP180;57391;51.306;22.680;2023-03-31T07:25:53;98556.60;;;13.10
70050;BMP180;57391;51.306;22.680;2023-03-31T07:28:21;98558.40;;;13.00
70050;BMP180;57391;51.306;22.680;2023-03-31T07:30:48;98559.00;;;12.98
70050;BMP180;57391;51.306;22.680;2023-03-31T07:33:15;98559.00;;;13.00
70050;BMP180;57391;51.306;22.680;2023-03-31T07:35:42;98559.00;;;13.10
70050;BMP180;57391;51.306;22.680;2023-03-31T07:38:12;98558.60;;;13.10
70050;BMP180;57391;51.306;22.680;2023-03-31T07:40:43;98554.20;;;13.02
70050;BMP180;57391;51.306;22.680;2023-03-31T07:43:11;98544.20;;;13.20
70050;BMP180;57391;51.306;22.680;2023-03-31T07:45:39;98542.80;;;13.38
70050;BMP180;57391;51.306;22.680;2023-03-31T07:48:06;98548.00;;;13.50
70050;BMP180;57391;51.306;22.680;2023-03-31T07:50:34;98545.20;;;13.50
70050;BMP180;57391;51.306;22.680;2023-03-31T07:53:01;98543.60;;;13.50
70050;BMP180;57391;51.306;22.680;2023-03-31T07:55:29;98539.80;;;13.60
70050;BMP180;57391;51.306;22.680;2023-03-31T07:57:56;98538.20;;;13.60
70050;BMP180;57391;51.306;22.680;2023-03-31T08:00:23;98538.60;;;13.60
70050;BMP180;57391;51.306;22.680;2023-03-31T08:02:50;98535.80;;;13.50
70050;BMP180;57391;51.306;22.680;2023-03-31T08:05:19;98542.80;;;13.48
70050;BMP180;57391;51.306;22.680;2023-03-31T08:07:49;98545.60;;;13.38
70050;BMP180;57391;51.306;22.680;2023-03-31T08:10:22;98540.20;;;13.30
70050;BMP180;57391;51.306;22.680;2023-03-31T08:12:50;98534.20;;;13.30
70050;BMP180;57391;51.306;22.680;2023-03-31T08:15:18;98531.20;;;13.44
70050;BMP180;57391;51.306;22.680;2023-03-31T08:17:45;98524.00;;;13.60
70050;BMP180;57391;51.306;22.680;2023-03-31T08:20:12;98524.60;;;13.70
70050;BMP180;57391;51.306;22.680;2023-03-31T08:22:40;98517.60;;;13.70
70050;BMP180;57391;51.306;22.680;2023-03-31T08:25:08;98511.80;;;13.70
70050;BMP180;57391;51.306;22.680;2023-03-31T08:27:39;98517.60;;;13.80
70050;BMP180;57391;51.306;22.680;2023-03-31T08:30:10;98514.40;;;13.80
70050;BMP180;57391;51.306;22.680;2023-03-31T08:32:37;98509.80;;;13.80
70050;BMP180;57391;51.306;22.680;2023-03-31T08:35:06;98507.40;;;13.80
70050;BMP180;57391;51.306;22.680;2023-03-31T08:37:33;98506.80;;;13.90
70050;BMP180;57391;51.306;22.680;2023-03-31T08:40:02;98506.40;;;14.00
70050;BMP180;57391;51.306;22.680;2023-03-31T08:42:42;98503.60;;;14.20
70050;BMP180;57391;51.306;22.680;2023-03-31T08:45:35;98504.20;;;14.30
70050;BMP180;57391;51.306;22.680;2023-03-31T08:48:49;98512.40;;;14.40
70050;BMP180;57391;51.306;22.680;2023-03-31T08:51:35;98513.00;;;14.48
70050;BMP180;57391;51.306;22.680;2023-03-31T08:54:13;98515.80;;;14.40
70050;BMP180;57391;51.306;22.680;2023-03-31T08:56:46;98512.20;;;14.40
70050;BMP180;57391;51.306;22.680;2023-03-31T08:59:26;98511.80;;;14.40
70050;BMP180;57391;51.306;22.680;2023-03-31T09:02:09;98513.00;;;14.30
70050;BMP180;57391;51.306;22.680;2023-03-31T09:07:28;98512.40;;;14.40
70050;BMP180;57391;51.306;22.680;2023-03-31T09:10:25;98503.40;;;14.40
70050;BMP180;57391;51.306;22.680;2023-03-31T09:13:31;98509.40;;;14.40
70050;BMP180;57391;51.306;22.680;2023-03-31T09:18:53;98500.40;;;14.50
70050;BMP180;57391;51.306;22.680;2023-03-31T09:21:31;98500.40;;;14.60
70050;BMP180;57391;51.306;22.680;2023-03-31T09:26:41;98497.60;;;14.50
70050;BMP180;57391;51.306;22.680;2023-03-31T09:29:22;98492.40;;;14.50
70050;BMP180;57391;51.306;22.680;2023-03-31T09:31:52;98497.60;;;14.50
70050;BMP180;57391;51.306;22.680;2023-03-31T09:34:33;98494.60;;;14.50
70050;BMP180;57391;51.306;22.680;2023-03-31T09:37:00;98495.40;;;14.40
70050;BMP180;57391;51.306;22.680;2023-03-31T09:39:27;98494.00;;;14.30
70050;BMP180;57391;51.306;22.680;2023-03-31T09:41:54;98488.40;;;14.30
70050;BMP180;57391;51.306;22.680;2023-03-31T09:46:59;98479.60;;;14.50
70050;BMP180;57391;51.306;22.680;2023-03-31T09:49:34;98476.40;;;14.60
70050;BMP180;57391;51.306;22.680;2023-03-31T09:52:26;98476.40;;;14.60
70050;BMP180;57391;51.306;22.680;2023-03-31T09:54:58;98470.80;;;14.80
70050;BMP180;57391;51.306;22.680;2023-03-31T09:57:37;98464.40;;;14.80
70050;BMP180;57391;51.306;22.680;2023-03-31T10:02:56;98460.60;;;15.00
70050;BMP180;57391;51.306;22.680;2023-03-31T10:05:37;98455.40;;;15.12
70050;BMP180;57391;51.306;22.680;2023-03-31T10:08:32;98452.20;;;15.24
70050;BMP180;57391;51.306;22.680;2023-03-31T10:13:52;98453.20;;;15.40
70050;BMP180;57391;51.306;22.680;2023-03-31T10:16:33;98444.80;;;15.40
70050;BMP180;57391;51.306;22.680;2023-03-31T10:19:32;98450.80;;;15.40
70050;BMP180;57391;51.306;22.680;2023-03-31T10:22:05;98449.00;;;15.40
70050;BMP180;57391;51.306;22.680;2023-03-31T10:24:40;98448.00;;;15.32
70050;BMP180;57391;51.306;22.680;2023-03-31T10:27:29;98439.80;;;15.40
70050;BMP180;57391;51.306;22.680;2023-03-31T10:30:00;98436.40;;;15.30
70050;BMP180;57391;51.306;22.680;2023-03-31T10:32:34;98435.60;;;15.30
70050;BMP180;57391;51.306;22.680;2023-03-31T10:38:04;98425.40;;;15.30
70050;BMP180;57391;51.306;22.680;2023-03-31T10:40:34;98424.80;;;15.30
70050;BMP180;57391;51.306;22.680;2023-03-31T10:43:13;98420.60;;;15.40
70050;BMP180;57391;51.306;22.680;2023-03-31T10:45:54;98413.20;;;15.50
70050;BMP180;57391;51.306;22.680;2023-03-31T10:53:50;98408.80;;;15.90
70050;BMP180;57391;51.306;22.680;2023-03-31T10:56:40;98397.20;;;16.10
70050;BMP180;57391;51.306;22.680;2023-03-31T11:22:58;98373.40;;;17.30
70050;BMP180;57391;51.306;22.680;2023-03-31T11:25:39;98372.20;;;17.30
70050;BMP180;57391;51.306;22.680;2023-03-31T11:28:35;98370.60;;;17.22
70050;BMP180;57391;51.306;22.680;2023-03-31T11:31:32;98366.20;;;17.10
70050;BMP180;57391;51.306;22.680;2023-03-31T11:42:57;98353.00;;;17.10
70050;BMP180;57391;51.306;22.680;2023-03-31T11:45:33;98350.80;;;17.10
70050;BMP180;57391;51.306;22.680;2023-03-31T11:48:12;98347.00;;;17.02
70050;BMP180;57391;51.306;22.680;2023-03-31T11:50:46;98349.40;;;16.94
70050;BMP180;57391;51.306;22.680;2023-03-31T11:53:23;98348.00;;;16.84
70050;BMP180;57391;51.306;22.680;2023-03-31T11:55:54;98342.80;;;16.76
70050;BMP180;57391;51.306;22.680;2023-03-31T11:58:44;98341.80;;;16.70
70050;BMP180;57391;51.306;22.680;2023-03-31T12:04:43;98336.00;;;16.50
70050;BMP180;57391;51.306;22.680;2023-03-31T12:07:28;98333.20;;;16.50
70050;BMP180;57391;51.306;22.680;2023-03-31T12:15:39;98324.80;;;16.10
70050;BMP180;57391;51.306;22.680;2023-03-31T12:18:14;98327.00;;;16.00
70050;BMP180;57391;51.306;22.680;2023-03-31T12:20:51;98318.00;;;15.90
70050;BMP180;57391;51.306;22.680;2023-03-31T12:23:26;98320.00;;;15.80
70050;BMP180;57391;51.306;22.680;2023-03-31T12:26:11;98319.80;;;15.70
70050;BMP180;57391;51.306;22.680;2023-03-31T12:28:42;98319.60;;;15.62
70050;BMP180;57391;51.306;22.680;2023-03-31T12:31:19;98328.60;;;15.60
70050;BMP180;57391;51.306;22.680;2023-03-31T12:34:05;98324.80;;;15.50
70050;BMP180;57391;51.306;22.680;2023-03-31T12:40:20;98320.60;;;15.28
70050;BMP180;57391;51.306;22.680;2023-03-31T12:52:06;98315.40;;;15.00
70050;BMP180;57391;51.306;22.680;2023-03-31T12:57:23;98307.20;;;15.10
70050;BMP180;57391;51.306;22.680;2023-03-31T13:00:26;98308.80;;;15.10
70050;BMP180;57391;51.306;22.680;2023-03-31T13:03:37;98309.40;;;15.10
70050;BMP180;57391;51.306;22.680;2023-03-31T13:06:11;98301.00;;;15.10
70050;BMP180;57391;51.306;22.680;2023-03-31T13:09:05;98304.00;;;15.10
70050;BMP180;57391;51.306;22.680;2023-03-31T13:11:41;98296.40;;;15.10
70050;BMP180;57391;51.306;22.680;2023-03-31T13:14:30;98298.60;;;15.10
70050;BMP180;57391;51.306;22.680;2023-03-31T13:17:19;98294.80;;;15.10
70050;BMP180;57391;51.306;22.680;2023-03-31T13:19:47;98300.60;;;15.10
70050;BMP180;57391;51.306;22.680;2023-03-31T13:22:35;98298.60;;;15.10
70050;BMP180;57391;51.306;22.680;2023-03-31T13:31:03;98284.40;;;15.18
70050;BMP180;57391;51.306;22.680;2023-03-31T13:33:36;98275.80;;;15.20
70050;BMP180;57391;51.306;22.680;2023-03-31T13:56:03;98253.00;;;15.70
70050;BMP180;57391;51.306;22.680;2023-03-31T14:10:49;98241.80;;;15.80
70050;BMP180;57391;51.306;22.680;2023-03-31T14:13:22;98234.40;;;15.88
70050;BMP180;57391;51.306;22.680;2023-03-31T14:15:55;98235.20;;;15.90
70050;BMP180;57391;51.306;22.680;2023-03-31T14:18:28;98227.40;;;15.90
70050;BMP180;57391;51.306;22.680;2023-03-31T14:32:44;98227.20;;;15.70
70050;BMP180;57391;51.306;22.680;2023-03-31T14:35:39;98225.80;;;15.64
70050;BMP180;57391;51.306;22.680;2023-03-31T14:38:28;98221.20;;;15.60
70050;BMP180;57391;51.306;22.680;2023-03-31T14:40:56;98218.80;;;15.56
70050;BMP180;57391;51.306;22.680;2023-03-31T14:43:31;98219.40;;;15.56
70050;BMP180;57391;51.306;22.680;2023-03-31T14:46:05;98219.40;;;15.54
70050;BMP180;57391;51.306;22.680;2023-03-31T14:48:40;98215.80;;;15.60
70050;BMP180;57391;51.306;22.680;2023-03-31T14:51:16;98212.40;;;15.60
70050;BMP180;57391;51.306;22.680;2023-03-31T14:53:44;98210.40;;;15.62
70050;BMP180;57391;51.306;22.680;2023-03-31T14:56:15;98203.80;;;15.70
70050;BMP180;57391;51.306;22.680;2023-03-31T14:58:51;98198.20;;;15.70
70050;BMP180;57391;51.306;22.680;2023-03-31T15:01:26;98197.80;;;15.70
70050;BMP180;57391;51.306;22.680;2023-03-31T15:03:55;98188.60;;;15.70
70050;BMP180;57391;51.306;22.680;2023-03-31T15:06:25;98185.80;;;15.70
70050;BMP180;57391;51.306;22.680;2023-03-31T15:08:56;98174.20;;;15.78
70050;BMP180;57391;51.306;22.680;2023-03-31T15:11:26;98176.60;;;15.80
70050;BMP180;57391;51.306;22.680;2023-03-31T15:13:56;98173.80;;;15.84
70050;BMP180;57391;51.306;22.680;2023-03-31T15:16:43;98175.20;;;15.90
70050;BMP180;57391;51.306;22.680;2023-03-31T15:19:23;98167.40;;;15.98
70050;BMP180;57391;51.306;22.680;2023-03-31T15:22:14;98163.40;;;16.00
70050;BMP180;57391;51.306;22.680;2023-03-31T15:24:45;98159.40;;;16.00
70050;BMP180;57391;51.306;22.680;2023-03-31T15:27:35;98155.80;;;16.00
70050;BMP180;57391;51.306;22.680;2023-03-31T15:30:12;98155.40;;;16.00
70050;BMP180;57391;51.306;22.680;2023-03-31T15:32:40;98155.00;;;16.00
70050;BMP180;57391;51.306;22.680;2023-03-31T15:35:27;98155.40;;;16.00
70050;BMP180;57391;51.306;22.680;2023-03-31T15:37:58;98148.00;;;16.00
70050;BMP180;57391;51.306;22.680;2023-03-31T15:40:34;98155.80;;;16.00
70050;BMP180;57391;51.306;22.680;2023-03-31T15:46:48;98150.80;;;15.82
70050;BMP180;57391;51.306;22.680;2023-03-31T15:49:21;98154.40;;;15.80
70050;BMP180;57391;51.306;22.680;2023-03-31T15:51:50;98153.20;;;15.70
70050;BMP180;57391;51.306;22.680;2023-03-31T15:54:39;98152.40;;;15.70
70050;BMP180;57391;51.306;22.680;2023-03-31T15:57:08;98151.00;;;15.60
70050;BMP180;57391;51.306;22.680;2023-03-31T15:59:49;98147.20;;;15.50
70050;BMP180;57391;51.306;22.680;2023-03-31T16:02:33;98142.20;;;15.40
70050;BMP180;57391;51.306;22.680;2023-03-31T16:05:05;98143.20;;;15.30
70050;BMP180;57391;51.306;22.680;2023-03-31T16:07:34;98134.00;;;15.30
70050;BMP180;57391;51.306;22.680;2023-03-31T16:12:49;98123.20;;;15.20
70050;BMP180;57391;51.306;22.680;2023-03-31T16:15:35;98122.20;;;15.20
70050;BMP180;57391;51.306;22.680;2023-03-31T16:18:14;98122.20;;;15.20
70050;BMP180;57391;51.306;22.680;2023-03-31T16:20:52;98113.20;;;15.18
70050;BMP180;57391;51.306;22.680;2023-03-31T16:23:25;98109.40;;;15.12
70050;BMP180;57391;51.306;22.680;2023-03-31T16:25:54;98109.60;;;15.10
70050;BMP180;57391;51.306;22.680;2023-03-31T16:28:28;98107.80;;;15.10
70050;BMP180;57391;51.306;22.680;2023-03-31T16:30:56;98106.40;;;15.10
70050;BMP180;57391;51.306;22.680;2023-03-31T16:33:30;98098.80;;;15.00
70050;BMP180;57391;51.306;22.680;2023-03-31T16:36:12;98101.40;;;14.92
70050;BMP180;57391;51.306;22.680;2023-03-31T16:39:27;98092.80;;;14.80
70050;BMP180;57391;51.306;22.680;2023-03-31T16:41:55;98093.00;;;14.70
70050;BMP180;57391;51.306;22.680;2023-03-31T16:44:22;98095.60;;;14.62
70050;BMP180;57391;51.306;22.680;2023-03-31T16:46:49;98093.00;;;14.52
70050;BMP180;57391;51.306;22.680;2023-03-31T16:49:16;98091.80;;;14.46
70050;BMP180;57391;51.306;22.680;2023-03-31T16:51:44;98093.80;;;14.40
70050;BMP180;57391;51.306;22.680;2023-03-31T16:54:11;98087.40;;;14.30
70050;BMP180;57391;51.306;22.680;2023-03-31T16:56:38;98086.00;;;14.20
70050;BMP180;57391;51.306;22.680;2023-03-31T16:59:05;98081.60;;;14.20
70050;BMP180;57391;51.306;22.680;2023-03-31T17:01:38;98083.40;;;14.12
70050;BMP180;57391;51.306;22.680;2023-03-31T17:04:59;98088.00;;;14.10
70050;BMP180;57391;51.306;22.680;2023-03-31T17:07:29;98082.40;;;14.00
70050;BMP180;57391;51.306;22.680;2023-03-31T17:09:56;98084.40;;;14.00
70050;BMP180;57391;51.306;22.680;2023-03-31T17:12:25;98083.80;;;13.92
70050;BMP180;57391;51.306;22.680;2023-03-31T17:14:52;98085.20;;;13.90
70050;BMP180;57391;51.306;22.680;2023-03-31T17:17:19;98080.80;;;13.90
70050;BMP180;57391;51.306;22.680;2023-03-31T17:19:46;98083.20;;;13.80
70050;BMP180;57391;51.306;22.680;2023-03-31T17:22:13;98082.40;;;13.78
70050;BMP180;57391;51.306;22.680;2023-03-31T17:24:41;98080.80;;;13.70
70050;BMP180;57391;51.306;22.680;2023-03-31T17:27:08;98079.00;;;13.70
70050;BMP180;57391;51.306;22.680;2023-03-31T17:29:35;98083.60;;;13.70
70050;BMP180;57391;51.306;22.680;2023-03-31T17:32:02;98082.60;;;13.68
70050;BMP180;57391;51.306;22.680;2023-03-31T17:37:18;98078.60;;;13.60
70050;BMP180;57391;51.306;22.680;2023-03-31T17:39:46;98076.40;;;13.60
70050;BMP180;57391;51.306;22.680;2023-03-31T17:42:19;98075.20;;;13.60
70050;BMP180;57391;51.306;22.680;2023-03-31T17:44:47;98076.60;;;13.50
70050;BMP180;57391;51.306;22.680;2023-03-31T17:47:17;98075.80;;;13.50